createdAt,value
2018-11-10T00:00:30.348Z,6.53
2018-11-10T00:02:58.616Z,6.48
2018-11-10T00:05:26.836Z,6.53
2018-11-10T00:07:55.115Z,6.52
2018-11-10T00:10:23.395Z,6.73
2018-11-10T00:12:51.616Z,6.73
2018-11-10T00:15:19.883Z,6.84
2018-11-10T00:17:48.104Z,6.84
2018-11-10T00:20:16.340Z,6.73
2018-11-10T00:22:44.539Z,6.50
2018-11-10T00:25:13.574Z,6.47
2018-11-10T00:27:42.876Z,6.39
2018-11-10T00:30:14.459Z,6.37
2018-11-10T00:32:43.529Z,6.30
2018-11-10T00:35:11.852Z,6.35
2018-11-10T00:37:40.229Z,6.36
2018-11-10T00:40:11.191Z,6.25
2018-11-10T00:42:39.481Z,6.19
2018-11-10T00:45:08.259Z,6.20
2018-11-10T00:47:36.865Z,6.24
2018-11-10T00:50:06.032Z,6.25
2018-11-10T00:52:34.350Z,6.29
2018-11-10T00:55:02.668Z,6.28
2018-11-10T00:57:30.901Z,6.29
2018-11-10T00:59:59.127Z,6.38
2018-11-10T01:02:27.208Z,6.43
2018-11-10T01:04:54.741Z,6.43
2018-11-10T01:07:22.324Z,6.50
2018-11-10T01:09:49.808Z,6.37
2018-11-10T01:12:17.303Z,6.23
2018-11-10T01:14:44.798Z,6.24
2018-11-10T01:17:12.365Z,6.28
2018-11-10T01:19:40.175Z,6.21
2018-11-10T01:22:07.722Z,6.14
2018-11-10T01:24:35.320Z,6.17
2018-11-10T01:27:02.937Z,6.15
2018-11-10T01:29:30.481Z,6.13
2018-11-10T01:31:57.999Z,6.19
2018-11-10T01:34:25.684Z,6.32
2018-11-10T01:36:53.190Z,6.43
2018-11-10T01:39:20.806Z,6.25
2018-11-10T01:41:48.338Z,6.19
2018-11-10T01:44:15.854Z,6.32
2018-11-10T01:46:43.418Z,6.37
2018-11-10T01:49:10.942Z,6.53
2018-11-10T01:51:38.934Z,6.49
2018-11-10T01:54:06.483Z,6.40
2018-11-10T01:56:34.029Z,6.49
2018-11-10T01:59:01.620Z,6.67
2018-11-10T02:01:29.147Z,6.63
2018-11-10T02:03:56.698Z,6.51
2018-11-10T02:06:24.241Z,6.50
2018-11-10T02:08:51.772Z,6.51
2018-11-10T02:11:19.337Z,6.46
2018-11-10T02:13:46.898Z,6.45
2018-11-10T02:16:14.479Z,6.55
2018-11-10T02:18:42.050Z,6.58
2018-11-10T02:21:09.604Z,6.58
2018-11-10T02:23:37.218Z,6.59
2018-11-10T02:26:04.805Z,6.53
2018-11-10T02:28:32.374Z,6.65
2018-11-10T02:30:59.895Z,6.75
2018-11-10T02:33:27.458Z,6.72
2018-11-10T02:35:54.980Z,6.76
2018-11-10T02:38:22.585Z,6.76
2018-11-10T02:40:50.452Z,6.89
2018-11-10T02:43:17.977Z,6.84
2018-11-10T02:45:45.538Z,6.77
2018-11-10T02:48:13.053Z,6.74
2018-11-10T02:50:40.607Z,6.66
2018-11-10T02:53:08.198Z,6.69
2018-11-10T02:55:35.715Z,6.62
2018-11-10T02:58:03.286Z,6.57
2018-11-10T03:00:30.855Z,6.67
2018-11-10T03:02:58.426Z,6.81
2018-11-10T03:05:25.962Z,6.74
2018-11-10T03:07:53.546Z,6.68
2018-11-10T03:10:21.079Z,6.70
2018-11-10T03:12:48.621Z,6.65
2018-11-10T03:15:16.183Z,6.80
2018-11-10T03:17:43.729Z,6.76
2018-11-10T03:20:13.433Z,6.70
2018-11-10T03:22:41.038Z,6.70
2018-11-10T03:25:09.058Z,6.74
2018-11-10T03:27:36.583Z,6.86
2018-11-10T03:30:04.306Z,6.75
2018-11-10T03:32:31.832Z,6.98
2018-11-10T03:34:59.358Z,7.07
2018-11-10T03:37:28.838Z,6.99
2018-11-10T03:39:56.367Z,6.88
2018-11-10T03:42:23.918Z,6.82
2018-11-10T03:44:51.479Z,6.77
2018-11-10T03:47:19.073Z,6.76
2018-11-10T03:49:46.680Z,6.95
2018-11-10T03:52:14.320Z,6.91
2018-11-10T03:54:41.866Z,6.78
2018-11-10T03:57:18.192Z,6.74
2018-11-10T03:59:45.720Z,6.83
2018-11-10T04:02:13.254Z,6.76
2018-11-10T04:04:40.801Z,6.81
2018-11-10T04:07:08.398Z,6.81
2018-11-10T04:09:35.957Z,6.93
2018-11-10T04:12:03.507Z,7.14
2018-11-10T04:14:31.058Z,7.24
2018-11-10T04:16:58.574Z,7.13
2018-11-10T04:19:26.100Z,7.03
2018-11-10T04:21:53.642Z,6.98
2018-11-10T04:24:21.275Z,7.02
2018-11-10T04:26:48.805Z,7.09
2018-11-10T04:29:16.349Z,7.47
2018-11-10T04:31:43.913Z,7.49
2018-11-10T04:34:11.408Z,7.51
2018-11-10T04:36:38.982Z,7.33
2018-11-10T04:39:06.900Z,7.30
2018-11-10T04:41:34.536Z,7.27
2018-11-10T04:44:02.070Z,7.22
2018-11-10T04:46:29.617Z,7.21
2018-11-10T04:48:57.167Z,7.16
2018-11-10T04:51:24.692Z,7.18
2018-11-10T04:53:52.286Z,7.15
2018-11-10T04:56:19.798Z,7.07
2018-11-10T04:58:47.356Z,7.08
2018-11-10T05:01:14.909Z,7.08
2018-11-10T05:03:42.412Z,7.13
2018-11-10T05:06:09.959Z,7.13
2018-11-10T05:08:38.336Z,7.20
2018-11-10T05:11:05.883Z,7.25
2018-11-10T05:13:33.410Z,7.25
2018-11-10T05:16:00.964Z,7.24
2018-11-10T05:18:28.490Z,7.20
2018-11-10T05:20:56.023Z,7.17
2018-11-10T05:23:23.545Z,7.14
2018-11-10T05:25:51.110Z,7.11
2018-11-10T05:28:18.672Z,6.95
2018-11-10T05:30:46.203Z,6.86
2018-11-10T05:33:13.718Z,6.80
2018-11-10T05:35:41.617Z,6.79
2018-11-10T05:38:09.135Z,6.81
2018-11-10T05:40:36.681Z,6.78
2018-11-10T05:43:04.204Z,6.77
2018-11-10T05:45:31.791Z,6.86
2018-11-10T05:47:59.326Z,6.86
2018-11-10T05:50:26.888Z,6.92
2018-11-10T05:52:54.461Z,6.96
2018-11-10T05:55:21.983Z,7.00
2018-11-10T05:57:49.659Z,6.93
2018-11-10T06:00:17.240Z,6.88
2018-11-10T06:02:44.818Z,6.91
2018-11-10T06:05:12.642Z,7.00
2018-11-10T06:07:40.234Z,6.93
2018-11-10T06:10:08.871Z,6.87
2018-11-10T06:12:36.276Z,6.88
2018-11-10T06:15:04.435Z,6.91
2018-11-10T06:17:32.002Z,6.89
2018-11-10T06:19:59.591Z,6.98
2018-11-10T06:22:27.135Z,7.05
2018-11-10T06:24:54.648Z,6.94
2018-11-10T06:27:22.145Z,6.94
2018-11-10T06:29:49.918Z,7.00
2018-11-10T06:32:17.452Z,6.91
2018-11-10T06:34:44.954Z,6.99
2018-11-10T06:37:12.585Z,7.11
2018-11-10T06:39:40.330Z,7.05
2018-11-10T06:42:07.834Z,7.15
2018-11-10T06:44:35.574Z,7.23
2018-11-10T06:47:03.342Z,7.31
2018-11-10T06:49:30.864Z,7.24
2018-11-10T06:51:58.351Z,7.25
2018-11-10T06:54:25.851Z,7.45
2018-11-10T06:56:53.516Z,7.33
2018-11-10T06:59:21.227Z,7.42
2018-11-10T07:01:48.930Z,7.43
2018-11-10T07:04:16.591Z,7.39
2018-11-10T07:06:44.131Z,7.49
2018-11-10T07:09:11.992Z,7.54
2018-11-10T07:11:40.149Z,7.53
2018-11-10T07:14:08.050Z,7.58
2018-11-10T07:16:35.896Z,7.57
2018-11-10T07:19:03.682Z,7.64
2018-11-10T07:21:31.458Z,7.56
2018-11-10T07:23:59.224Z,7.48
2018-11-10T07:26:26.945Z,7.51
2018-11-10T07:28:54.426Z,7.53
2018-11-10T07:31:22.269Z,7.50
2018-11-10T07:33:49.993Z,7.54
2018-11-10T07:36:17.486Z,7.56
2018-11-10T07:38:45.060Z,7.52
2018-11-10T07:41:13.080Z,7.49
2018-11-10T07:43:40.670Z,7.44
2018-11-10T07:46:08.167Z,7.39
2018-11-10T07:48:35.704Z,7.50
2018-11-10T07:51:03.312Z,7.52
2018-11-10T07:53:30.962Z,7.50
2018-11-10T07:55:58.617Z,7.60
2018-11-10T07:58:26.110Z,7.39
2018-11-10T08:00:53.746Z,7.69
2018-11-10T08:03:21.315Z,7.90
2018-11-10T08:05:48.986Z,8.19
2018-11-10T08:08:16.494Z,8.44
2018-11-10T08:10:44.138Z,8.59
2018-11-10T08:13:11.829Z,8.73
2018-11-10T08:15:39.352Z,8.92
2018-11-10T08:18:06.906Z,9.09
2018-11-10T08:20:34.503Z,9.32
2018-11-10T08:23:02.196Z,9.58
2018-11-10T08:25:29.860Z,9.81
2018-11-10T08:27:57.502Z,9.89
2018-11-10T08:30:25.017Z,10.00
2018-11-10T08:32:52.502Z,9.97
2018-11-10T08:35:20.117Z,10.18
2018-11-10T08:37:47.790Z,10.15
2018-11-10T08:40:16.606Z,10.46
2018-11-10T08:42:44.091Z,10.63
2018-11-10T08:45:12.612Z,10.91
2018-11-10T08:47:40.914Z,11.69
2018-11-10T08:50:09.390Z,12.76
2018-11-10T08:52:37.099Z,14.18
2018-11-10T08:55:05.059Z,15.37
2018-11-10T08:57:33.325Z,16.27
2018-11-10T09:00:00.878Z,18.05
2018-11-10T09:02:28.584Z,18.21
2018-11-10T09:04:56.083Z,18.36
2018-11-10T09:07:23.815Z,18.92
2018-11-10T09:09:51.459Z,20.74
2018-11-10T09:12:18.981Z,21.36
2018-11-10T09:14:46.663Z,21.47
2018-11-10T09:17:14.193Z,21.22
2018-11-10T09:19:41.708Z,21.07
2018-11-10T09:22:09.965Z,21.70
2018-11-10T09:24:37.605Z,21.60
2018-11-10T09:27:05.359Z,22.27
2018-11-10T09:29:32.881Z,22.87
2018-11-10T09:32:00.418Z,22.91
2018-11-10T09:34:28.320Z,23.40
2018-11-10T09:36:55.862Z,22.92
2018-11-10T09:39:23.440Z,23.27
2018-11-10T09:41:51.091Z,22.27
2018-11-10T09:44:18.547Z,20.88
2018-11-10T09:46:46.080Z,20.16
2018-11-10T09:49:13.796Z,19.45
2018-11-10T09:51:41.338Z,19.32
2018-11-10T09:54:09.053Z,19.65
2018-11-10T09:56:36.672Z,19.59
2018-11-10T09:59:04.415Z,18.93
2018-11-10T10:01:32.280Z,18.36
2018-11-10T10:03:59.605Z,18.07
2018-11-10T10:06:27.160Z,17.84
2018-11-10T10:08:54.719Z,17.47
2018-11-10T10:11:22.239Z,17.26
2018-11-10T10:13:49.941Z,16.81
2018-11-10T10:16:17.639Z,16.97
2018-11-10T10:18:44.989Z,17.02
2018-11-10T10:21:12.475Z,16.92
2018-11-10T10:23:39.990Z,16.75
2018-11-10T10:26:07.519Z,16.85
2018-11-10T10:28:35.092Z,16.69
2018-11-10T10:31:02.542Z,16.77
2018-11-10T10:33:30.223Z,16.88
2018-11-10T10:35:57.707Z,16.91
2018-11-10T10:38:25.197Z,16.88
2018-11-10T10:40:52.912Z,16.91
2018-11-10T10:43:20.405Z,16.92
2018-11-10T10:45:47.895Z,17.06
2018-11-10T10:48:15.551Z,17.18
2018-11-10T10:50:43.058Z,17.19
2018-11-10T10:53:10.588Z,17.25
2018-11-10T10:55:38.087Z,17.13
2018-11-10T10:58:05.962Z,17.13
2018-11-10T11:00:39.173Z,17.17
2018-11-10T11:03:12.365Z,17.35
2018-11-10T11:05:41.619Z,17.19
2018-11-10T11:08:09.280Z,17.40
2018-11-10T11:10:37.454Z,17.26
2018-11-10T11:13:05.241Z,16.97
2018-11-10T11:15:32.844Z,17.06
2018-11-10T11:18:01.465Z,16.91
2018-11-10T11:20:29.043Z,16.85
2018-11-10T11:22:56.681Z,17.02
2018-11-10T11:25:24.236Z,17.07
2018-11-10T11:27:51.914Z,17.05
2018-11-10T11:30:19.566Z,17.00
2018-11-10T11:32:47.038Z,17.19
2018-11-10T11:35:14.630Z,17.00
2018-11-10T11:37:42.531Z,16.81
2018-11-10T11:40:11.602Z,16.68
2018-11-10T11:42:39.278Z,16.56
2018-11-10T11:45:07.545Z,16.62
2018-11-10T11:47:35.100Z,16.65
2018-11-10T11:50:02.895Z,16.58
2018-11-10T11:52:30.529Z,16.77
2018-11-10T11:54:58.122Z,16.73
2018-11-10T11:57:25.651Z,16.65
2018-11-10T11:59:53.117Z,16.86
2018-11-10T12:02:20.892Z,16.91
2018-11-10T12:04:48.290Z,16.77
2018-11-10T12:07:15.886Z,16.94
2018-11-10T12:09:43.614Z,16.67
2018-11-10T12:12:11.129Z,16.46
2018-11-10T12:14:38.680Z,16.36
2018-11-10T12:17:06.365Z,16.52
2018-11-10T12:19:33.781Z,16.71
2018-11-10T12:22:01.398Z,16.76
2018-11-10T12:24:28.919Z,16.72
2018-11-10T12:26:56.533Z,16.65
2018-11-10T12:29:23.934Z,16.62
2018-11-10T12:31:51.523Z,16.66
2018-11-10T12:34:19.180Z,16.57
2018-11-10T12:36:46.825Z,16.67
2018-11-10T12:39:14.459Z,16.59
2018-11-10T12:41:42.083Z,16.68
2018-11-10T12:44:09.815Z,16.58
2018-11-10T12:46:37.613Z,16.52
2018-11-10T12:49:05.404Z,16.67
2018-11-10T12:51:32.885Z,16.55
2018-11-10T12:54:00.379Z,16.47
2018-11-10T12:56:28.015Z,16.40
2018-11-10T12:58:55.694Z,16.32
2018-11-10T13:01:23.179Z,16.27
2018-11-10T13:03:50.790Z,16.28
2018-11-10T13:06:18.311Z,16.34
2018-11-10T13:08:45.777Z,16.25
2018-11-10T13:11:14.471Z,16.25
2018-11-10T13:13:42.049Z,16.25
2018-11-10T13:16:09.657Z,16.18
2018-11-10T13:18:37.498Z,16.04
2018-11-10T13:21:05.368Z,16.06
2018-11-10T13:23:32.955Z,16.04
2018-11-10T13:26:00.460Z,16.04
2018-11-10T13:28:27.985Z,16.14
2018-11-10T13:30:55.687Z,16.15
2018-11-10T13:33:23.171Z,16.12
2018-11-10T13:35:50.970Z,15.98
2018-11-10T13:38:18.457Z,15.97
2018-11-10T13:40:45.922Z,15.88
2018-11-10T13:43:13.448Z,16.00
2018-11-10T13:45:40.979Z,16.06
2018-11-10T13:48:08.507Z,16.08
2018-11-10T13:50:36.245Z,16.10
2018-11-10T13:53:04.261Z,15.97
2018-11-10T13:55:31.366Z,15.77
2018-11-10T13:57:58.996Z,15.62
2018-11-10T14:00:26.696Z,15.64
2018-11-10T14:02:55.089Z,15.62
2018-11-10T14:05:22.657Z,15.50
2018-11-10T14:07:50.113Z,15.45
2018-11-10T14:10:17.663Z,15.46
2018-11-10T14:12:46.108Z,15.40
2018-11-10T14:15:13.702Z,15.19
2018-11-10T14:17:42.010Z,14.97
2018-11-10T14:20:11.256Z,14.84
2018-11-10T14:22:38.752Z,14.91
2018-11-10T14:25:07.150Z,14.73
2018-11-10T14:27:34.872Z,14.68
2018-11-10T14:30:02.435Z,14.67
2018-11-10T14:32:29.998Z,14.65
2018-11-10T14:34:57.494Z,14.65
2018-11-10T14:37:25.084Z,14.56
2018-11-10T14:39:52.544Z,14.54
2018-11-10T14:42:20.146Z,14.54
2018-11-10T14:44:47.651Z,14.59
2018-11-10T14:47:15.312Z,14.55
2018-11-10T14:49:42.922Z,14.58
2018-11-10T14:52:10.600Z,14.54
2018-11-10T14:54:38.115Z,14.53
2018-11-10T14:57:05.488Z,14.48
2018-11-10T14:59:33.450Z,14.45
2018-11-10T15:02:01.376Z,14.49
2018-11-10T15:04:28.871Z,14.46
2018-11-10T15:06:56.415Z,14.43
2018-11-10T15:09:23.969Z,14.33
2018-11-10T15:11:52.035Z,14.13
2018-11-10T15:14:19.693Z,14.14
2018-11-10T15:16:47.390Z,14.19
2018-11-10T15:19:14.923Z,14.12
2018-11-10T15:21:42.447Z,14.00
2018-11-10T15:24:09.939Z,14.03
2018-11-10T15:26:37.610Z,14.03
2018-11-10T15:29:06.178Z,14.11
2018-11-10T15:31:33.747Z,14.18
2018-11-10T15:34:01.366Z,14.30
2018-11-10T15:36:29.054Z,14.08
2018-11-10T15:38:56.688Z,14.17
2018-11-10T15:41:24.170Z,14.02
2018-11-10T15:43:51.714Z,13.90
2018-11-10T15:46:19.183Z,13.90
2018-11-10T15:48:46.726Z,13.85
2018-11-10T15:51:14.395Z,13.76
2018-11-10T15:53:42.210Z,13.64
2018-11-10T15:56:09.867Z,13.69
2018-11-10T15:58:37.383Z,13.58
2018-11-10T16:01:05.025Z,13.55
2018-11-10T16:03:32.526Z,13.34
2018-11-10T16:06:00.237Z,13.24
2018-11-10T16:08:27.895Z,13.10
2018-11-10T16:10:55.567Z,13.07
2018-11-10T16:13:23.247Z,13.07
2018-11-10T16:15:50.781Z,13.09
2018-11-10T16:18:18.470Z,13.07
2018-11-10T16:20:46.256Z,13.31
2018-11-10T16:23:13.924Z,13.56
2018-11-10T16:25:41.623Z,13.37
2018-11-10T16:28:09.130Z,13.39
2018-11-10T16:30:36.659Z,13.29
2018-11-10T16:33:04.364Z,13.18
2018-11-10T16:35:32.309Z,13.13
2018-11-10T16:37:59.800Z,12.92
2018-11-10T16:40:27.450Z,12.83
2018-11-10T16:42:55.339Z,12.77
2018-11-10T16:45:22.986Z,12.76
2018-11-10T16:47:50.499Z,12.65
2018-11-10T16:50:18.013Z,12.53
2018-11-10T16:52:46.116Z,12.50
2018-11-10T16:55:13.872Z,12.51
2018-11-10T16:57:41.511Z,12.58
2018-11-10T17:00:10.208Z,12.49
2018-11-10T17:02:37.855Z,12.50
2018-11-10T17:05:05.627Z,12.53
2018-11-10T17:07:33.202Z,12.57
2018-11-10T17:10:00.775Z,12.57
2018-11-10T17:12:28.300Z,12.53
2018-11-10T17:14:56.004Z,12.57
2018-11-10T17:17:23.725Z,12.51
2018-11-10T17:19:51.393Z,12.47
2018-11-10T17:22:19.252Z,12.47
2018-11-10T17:24:46.669Z,12.45
2018-11-10T17:27:14.309Z,12.50
2018-11-10T17:29:41.744Z,12.41
2018-11-10T17:32:10.031Z,12.38
2018-11-10T17:34:37.550Z,12.29
2018-11-10T17:37:05.077Z,12.27
2018-11-10T17:39:32.968Z,12.14
2018-11-10T17:42:00.451Z,12.13
2018-11-10T17:44:28.063Z,12.18
2018-11-10T17:46:55.563Z,12.04
2018-11-10T17:49:23.338Z,12.15
2018-11-10T17:51:50.907Z,12.17
2018-11-10T17:54:18.549Z,12.12
2018-11-10T17:56:46.075Z,12.25
2018-11-10T17:59:13.827Z,12.14
2018-11-10T18:01:41.515Z,12.15
2018-11-10T18:04:10.088Z,12.16
2018-11-10T18:06:37.718Z,12.05
2018-11-10T18:09:06.378Z,11.99
2018-11-10T18:11:33.933Z,12.04
2018-11-10T18:14:01.601Z,12.02
2018-11-10T18:16:29.115Z,11.88
2018-11-10T18:18:56.846Z,11.85
2018-11-10T18:21:24.456Z,11.80
2018-11-10T18:23:51.976Z,11.68
2018-11-10T18:26:19.612Z,11.58
2018-11-10T18:28:47.242Z,11.58
2018-11-10T18:31:14.885Z,11.50
2018-11-10T18:33:42.595Z,11.52
2018-11-10T18:36:10.131Z,11.41
2018-11-10T18:38:37.637Z,11.36
2018-11-10T18:41:05.398Z,11.36
2018-11-10T18:43:34.136Z,11.31
2018-11-10T18:46:01.644Z,11.24
2018-11-10T18:48:29.997Z,11.33
2018-11-10T18:50:57.510Z,11.33
2018-11-10T18:53:25.190Z,11.35
2018-11-10T18:55:52.724Z,11.35
2018-11-10T18:58:20.247Z,11.36
2018-11-10T19:00:47.764Z,11.40
2018-11-10T19:03:15.290Z,11.35
2018-11-10T19:05:42.845Z,11.39
2018-11-10T19:08:10.486Z,11.40
2018-11-10T19:10:38.040Z,11.42
2018-11-10T19:13:05.655Z,11.37
2018-11-10T19:15:33.266Z,11.33
2018-11-10T19:18:00.931Z,11.28
2018-11-10T19:20:28.458Z,11.29
2018-11-10T19:22:56.199Z,11.23
2018-11-10T19:25:23.715Z,11.20
2018-11-10T19:27:51.222Z,11.22
2018-11-10T19:30:20.037Z,11.15
2018-11-10T19:32:48.466Z,11.18
2018-11-10T19:35:17.002Z,11.30
2018-11-10T19:37:45.156Z,11.33
2018-11-10T19:40:12.879Z,11.20
2018-11-10T19:42:41.575Z,11.16
2018-11-10T19:45:09.736Z,11.05
2018-11-10T19:47:38.380Z,11.14
2018-11-10T19:50:06.348Z,11.17
2018-11-10T19:52:34.039Z,11.05
2018-11-10T19:55:01.648Z,11.08
2018-11-10T19:57:29.212Z,10.98
2018-11-10T19:59:56.751Z,10.99
2018-11-10T20:02:24.278Z,10.96
2018-11-10T20:04:51.928Z,10.93
2018-11-10T20:07:19.560Z,10.90
2018-11-10T20:09:47.072Z,10.69
2018-11-10T20:12:14.593Z,10.58
2018-11-10T20:14:42.315Z,10.47
2018-11-10T20:17:10.034Z,10.40
2018-11-10T20:19:37.847Z,10.43
2018-11-10T20:22:05.480Z,10.55
2018-11-10T20:24:33.307Z,10.49
2018-11-10T20:27:01.979Z,10.51
2018-11-10T20:29:29.486Z,10.43
2018-11-10T20:31:57.057Z,10.49
2018-11-10T20:34:24.738Z,10.50
2018-11-10T20:36:52.622Z,10.57
2018-11-10T20:39:20.189Z,10.65
2018-11-10T20:41:47.720Z,10.71
2018-11-10T20:44:15.238Z,10.77
2018-11-10T20:46:44.201Z,10.81
2018-11-10T20:49:11.771Z,10.72
2018-11-10T20:51:39.405Z,10.78
2018-11-10T20:54:07.451Z,10.72
2018-11-10T20:56:34.978Z,10.66
2018-11-10T20:59:02.539Z,10.70
2018-11-10T21:01:30.248Z,10.76
2018-11-10T21:03:57.876Z,10.70
2018-11-10T21:06:25.727Z,11.00
2018-11-10T21:08:53.455Z,11.06
2018-11-10T21:11:21.019Z,10.94
2018-11-10T21:13:48.779Z,10.84
2018-11-10T21:16:16.539Z,10.82
2018-11-10T21:18:44.047Z,10.79
2018-11-10T21:21:11.624Z,10.79
2018-11-10T21:23:39.381Z,10.76
2018-11-10T21:26:07.569Z,10.68
2018-11-10T21:28:35.137Z,10.53
2018-11-10T21:31:02.618Z,10.57
2018-11-10T21:33:30.369Z,10.51
2018-11-10T21:35:57.855Z,10.45
2018-11-10T21:38:25.546Z,10.38
2018-11-10T21:40:53.278Z,10.41
2018-11-10T21:43:20.928Z,10.31
2018-11-10T21:45:48.561Z,10.35
2018-11-10T21:48:16.074Z,10.35
2018-11-10T21:50:43.570Z,10.27
2018-11-10T21:53:11.093Z,10.29
2018-11-10T21:55:38.768Z,10.17
2018-11-10T21:58:06.310Z,10.05
2018-11-10T22:00:33.819Z,10.07
2018-11-10T22:03:01.362Z,10.13
2018-11-10T22:05:28.911Z,10.07
2018-11-10T22:07:56.392Z,10.14
2018-11-10T22:10:24.053Z,10.15
2018-11-10T22:12:51.582Z,10.14
2018-11-10T22:15:21.315Z,10.10
2018-11-10T22:17:49.280Z,10.08
2018-11-10T22:20:18.144Z,9.88
2018-11-10T22:22:46.199Z,9.81
2018-11-10T22:25:14.107Z,9.88
2018-11-10T22:27:42.951Z,9.89
2018-11-10T22:30:14.125Z,9.92
2018-11-10T22:32:42.070Z,9.93
2018-11-10T22:35:09.990Z,9.87
2018-11-10T22:37:37.656Z,9.85
2018-11-10T22:40:06.212Z,9.86
2018-11-10T22:42:34.385Z,9.75
2018-11-10T22:45:02.086Z,9.75
2018-11-10T22:47:29.617Z,9.71
2018-11-10T22:49:57.267Z,9.78
2018-11-10T22:52:24.812Z,9.81
2018-11-10T22:54:52.317Z,9.84
2018-11-10T22:57:19.857Z,9.84
2018-11-10T22:59:47.355Z,9.78
2018-11-10T23:02:14.994Z,9.88
2018-11-10T23:04:42.711Z,9.81
2018-11-10T23:07:10.250Z,9.89
2018-11-10T23:09:37.783Z,9.88
2018-11-10T23:12:05.322Z,9.83
2018-11-10T23:14:32.798Z,9.83
2018-11-10T23:17:00.329Z,9.86
2018-11-10T23:19:28.910Z,9.86
2018-11-10T23:21:56.578Z,9.85
2018-11-10T23:24:24.227Z,9.92
2018-11-10T23:26:51.884Z,9.81
2018-11-10T23:29:19.555Z,9.84
2018-11-10T23:31:47.202Z,9.90
2018-11-10T23:34:14.998Z,9.92
2018-11-10T23:36:42.503Z,9.96
2018-11-10T23:39:11.710Z,9.92
2018-11-10T23:41:39.853Z,10.00
2018-11-10T23:44:07.775Z,10.07
2018-11-10T23:46:35.523Z,9.92
2018-11-10T23:49:03.091Z,10.01
2018-11-10T23:51:30.606Z,10.25
2018-11-10T23:53:58.295Z,10.21
2018-11-10T23:56:25.894Z,10.14
2018-11-10T23:58:53.438Z,10.15
